Aeroporto :
LOGIN :

Iscrizione | Disclaimer

   EN    FR    IT 

 










Sommario :    VFR   VFR Marginale   IFR   IFR Intensivo   IFR Molto Intensivo
Visibilità : 
Base nubi : 
>= 8 km
>= 3000ft
5 / 8 km
1000 / 3000 ft
1500m / 5 km
500 / 1000 ft
800 / 1500m
200 / 500 ft
< 800m
< 200 ft
Simboli :   Temporali  Nebbia  Neve Forte  Precipitazioni Forti  Vento > 20 kt
SIGMETs :   Varie  Temporali  Ghiacco  Turbolenza  Onda orograficha  Ceneri Vulcaniche






- Altitudine del aeroporto : 39 ft
- Codice IATA : ANR


EBAW - Anvers / Antwerpen Deurne

ULTIMO METAR :
  • 221650Z 10007KT CAVOK 07/04 Q1001 NOSIG

METARs OBSOLETI :
  • 221620Z 10007KT CAVOK 06/04 Q1001 NOSIG
  • 221550Z 12007KT CAVOK 08/06 Q1001 NOSIG
  • 221520Z 11007KT CAVOK 08/05 Q1001 NOSIG
  • 221450Z 11007KT CAVOK 09/05 Q1001 NOSIG
  • 221420Z 12008KT CAVOK 09/05 Q1001 NOSIG

TAF TAF EBAW
Valido dal 22 a 15 ore il 23 a 00 ore UTC


221413Z 2215/2224 12010KT 9999 FEW020



MetMap, La meteo Aeronautica in un colpo d'occhio ! - Copyright ORBIFLY Dicembre 2007 - Disclaimer

ORBIFLY MET'MAP TEAM :

Programmazione e sviluppo : Alexandra Zaïnal
Concezione e sviluppo : Baudouin d'Aumeries
Co-Programmazione e sviluppo : Marc-Olivier Méhu
Supporto tecnico e logistico : Manuel Goepfert
Aiuto per la traduzione : Arnaldo La Scala

Contatto : metmap@orbifly.com




FONTI E CREDITI :

   NOAA